Northern & Central Napa County

33 Stations

15 Minute Data | America/Los_Angeles
as of 9/2/26 7:35 AM PDT
Station Date Time Temp (°F) RH (%) Dew Pt (°F) Wind Spd (mph) Wind Dir (°) Wind Gust (mph) Latest Rain (In) Daily Rain (In) Daily Max Temp (°F) Daily Min Temp (°F)
Tenma (North Calistoga) 9/2/26 0730 58.2   1.6 - - - - - 0.00 0.01 60.3   0.6 56.4   2.5
Calistoga-Solari 9/2/26 0730 57.4   0.9 96   17 56.3   4.5 1.2   0.7 W | 263 2.6   2.0 0.00 0.04 59.6   1.0 54.4   0.9
Calistoga-North 9/2/26 0730 58.3   1.4 95   16 56.8   3.8 - - - 0.00 0.00 59.9   0.1 57.9   1.9
Twomey Calistoga 9/2/26 0730 59.1   0.2 86   10 55.1   3.0 1.4   0.3 ESE | 108 3.9   0.8 0.00 0.00 59.1   0.2 49.8   2.2
Paloma 9/2/26 0730 59.3   0.6 85   11 54.9   3.2 3.2   1.0 NNW | 340 7.8   1.7 0.00 0.00 59.5   0.4 56.1   0.3
Calistoga (Ranch 78) 9/2/26 0730 58.7   0.7 86   11 54.4   3.1 1.4   0.7 ESE | 114 3.7   0.7 0.00 0.00 58.9   0.4 54.8   0.1
Diamond Mtn (Schramsberg) 9/2/26 0730 55.0   1.0 100   18 55.1   4.3 - - - 0.00 0.00 57.6   1.3 54.8   1.1
Diamond Mtn (McEachran) 9/2/26 0730 57.1   0.4 92   12 54.8   3.4 - - - - - 58.6   0.4 56.7   2.4
Deer Park 9/2/26 0730 58.1   0.1 90   12 55.2   3.8 4.6   2.9 SE | 130 8.3   5.0 0.00 0.00 58.3   0.1 56.0   0.2
St. Helena-North 9/2/26 0730 58.8   0.6 81   8 52.9   2.4 3.1   3.0 S | 169 5.5   4.2 0.00 0.00 59.0   0.8 55.8   1.5
St. Helena (NVV Office) 9/2/26 0730 59.4   1.0 - - 0.9   0.2 ENE | 71 3.3   1.5 0.00 0.00 59.5   1.1 55.8   1.4
Tiara Fria (East St. Helena) 9/2/26 0730 59.3   1.0 83   10 54.2   2.5 1.0   0.5 ESE | 121 2.4   0.7 0.00 0.00 59.4   1.1 53.4   2.1
Prisoner Winery 9/2/26 0730 58.7   1.3 84   10 54.0   2.2 0.1   0.2 SW | 226 1.2   0.7 0.00 0.00 59.0   1.2 53.4   0.2
Rutherford Hill Estate 9/2/26 0730 58.5   0.8 88   15 55.0   4.3 0.5   0.2 S | 190 2.4   1.1 0.00 0.00 58.7   0.9 55.9   1.2
Rutherford-North (Mee Ln) 9/2/26 0730 58.6   1.7 83   11 53.5   2.2 0.5   1.4 SSW | 203 2.0   1.5 0.00 0.00 59.0   1.7 51.7   1.4
Rutherford (STS) 9/2/26 0730 59.2   2.4 88   12 55.6   1.8 0.6   1.0 W | 275 1.4   2.9 0.00 0.00 59.2   2.4 52.2   3.6
Silver Oak OV 9/2/26 0730 59.8   1.0 86   15 55.8   4.2 2.2   0.1 SSE | 164 4.7   0.4 0.00 0.00 59.8   1.4 52.5   5.7
Oakville-NE (Ranch 88) 9/2/26 0730 60.0   0.5 82   15 54.6   4.9 1.0   0.6 SSW | 200 4.3   0.5 0.00 0.00 60.2   0.5 51.6   5.9
Crossroads Ranch 9/2/26 0730 60.0   1.0 85   13 55.6   3.5 2.5   0.9 S | 170 4.6   1.3 0.00 0.00 60.2   0.9 52.9   5.6
Oakville 9/2/26 0730 59.2   1.8 87   17 55.3   4.2 1.2   1.1 SSE | 157 4.5   0.7 0.00 0.00 59.6   1.8 52.6   6.2
To Kalon Remote (TKKE) 9/2/26 0730 59.2   2.2 - - - - - - - 59.3   2.4 53.7   4.3
To Kalon 9/2/26 0730 58.9   1.9 91   17 56.2   3.8 0.3   1.6 E | 97 1.1   2.6 0.00 0.00 59.2   1.8 53.6   5.9
To Kalon Remote (TKN5) 9/2/26 0730 59.4   2.2 - - - - - - - 59.8   2.0 53.7   6.5
Jump Rock 9/2/26 0730 55.8   0.4 97   15 55.1   4.8 2.0   0.5 SW | 218 5.6   1.5 0.00 0.00 56.8   1.1 43.7   10.5
State Lane Ranch 9/2/26 0730 61.6   0.8 85   7 57.2   3.2 4.9   1.9 SE | 125 9.3   3.7 0.00 0.00 61.9   0.9 50.4   8.4
Yountville (Ranch 67) 9/2/26 0730 59.9   0.2 83   12 54.7   4.2 3.2   3.1 ESE | 117 6.1   5.0 0.00 0.00 60.0   0.7 51.2   7.1
Borreo (Soda Canyon) 9/2/26 0715 58.2   1.1 89   8 55.1   3.5 0.2   0.9 W | 268 1.0   2.0 0.00 0.00 59.0   0.2 50.8   6.0
Wappo Hill Floor 9/2/26 0730 60.3   0.1 85   9 55.9   3.1 0.7   0.4 SSE | 149 2.7   0.4 0.00 0.00 60.3   1.2 52.1   7.0
Wappo Hill 9/2/26 0730 60.4   0.5 85   9 55.8   3.5 2.9   1.6 E | 95 5.8   2.8 0.00 0.00 60.4   0.6 54.5   4.3
Stags Leap Dist (Chimney Rock) 9/2/26 0730 61.1   0.7 88   7 57.5   3.0 1.5   0.1 SE | 134 3.9   0.7 0.00 0.00 61.5   0.0 52.4   6.9
Stags Leap Dist (Silverado Vineyards) 9/2/26 0730 59.9   0.6 84   15 55.1   4.9 3.5   2.4 E | 95 5.5   2.4 0.00 0.00 60.2   0.5 52.1   6.3
Yountville-SE (Ranch 85) 9/2/26 0730 60.1   0.1 89   10 57.0   3.4 1.5   0.3 SSE | 148 3.2   0.5 0.00 0.00 60.6   0.7 52.9   6.2
Yountville-South (Ranch 87) 9/2/26 0730 59.3   0.9 90   13 56.5   3.5 0.4   0.2 W | 267 1.7   0.6 0.00 0.00 59.5   1.8 52.4   6.6
Max     61.6 100 57.5 4.9 - 9.3 0.00 0.04 61.9 57.9
Avg     59.0 88 55.3 1.7 - 4.0 0.00 - - -
Min     55.0 81 52.9 0.1 - 1.0 0.00 0.00 56.8 43.7